Pagrindinis puslapis
METAR-TAF:

METAR-TAF

Oro uostai :

Abadanas, Iranas

platuma: 30-22N, ilguma: 048-15E, Aukštis: 3 m

Dabartinis oras

Ataskaita buvo paskelbta 24 minutes, ne 17:00 UTC
Vėjas 8 kt iš Šiaurės Vakarų
Temperatūra 25°C
Drėgmė 28%
Slėgis 1012 hPa
Matomumas 10 km arba daugiau
nėra debesų žemiau 1500 m ir nėra kamuolinių lietaus debesų

METAR: OIAA 151700Z 32008KT CAVOK 25/05 Q1012

Laikas: 21:54 (17:24 UTC)

Prognozė

Ataskaita buvo paskelbta 5 valandos ir 34 minutes, ne 11:50 UTC
Prognozė galioja nuo 15 metu 12 UTC su 16 metu 18 UTC
Vėjas 10 kt iš Vakarų
Matomumas: 7000 m
Laikinai
nuo 15 metu 12 UTC su 15 metu 15 UTC
Vėjas 18 kt iš Šiaurės Vakarų
Laikinai
nuo 16 metu 06 UTC su 16 metu 16 UTC
Vėjas 16 kt iš Šiaurės Vakarų su gūsio iki 26 kt
Matomumas: 4000 m

TAF: OIAA 151150Z 1512/1618 28010KT 7000 NSC TEMPO 1512/1515 32018KT TEMPO 1606/1616 32016G26KT 4000 SA/DU

Orai ataskaitas ir orų prognozės (METAR, TAF).

turimą stotys yra geltonos ir raudonos taškus žemėlapyje.

Perkelti pele per norėdami pamatyti stoties vardą.

Tada spustelėkite, norėdami matyti oro stebėjimo ir prognozės.

Norėdami pakeisti žemėlapį: spustelėkite ant žalios mygtukų su juodo kryžiaus žemyn,; žalią mygtuką su brūkšneliu, jei norite nutolinti; arba žalių rodyklių gretimoms žemėlapius.


METAR-TAF: